createdAt,value
2024-03-05T00:00:14.279Z,1007.00
2024-03-05T00:01:14.388Z,1009.00
2024-03-05T00:02:14.418Z,1009.00
2024-03-05T00:03:14.336Z,1010.00
2024-03-05T00:04:14.430Z,1010.00
2024-03-05T00:05:14.415Z,1009.00
2024-03-05T00:06:14.425Z,1009.00
2024-03-05T00:07:14.477Z,1009.00
2024-03-05T00:08:14.474Z,1009.00
2024-03-05T00:09:14.543Z,1009.00
2024-03-05T00:10:14.810Z,1006.00
2024-03-05T00:11:14.695Z,1007.00
2024-03-05T00:12:14.834Z,1009.00
2024-03-05T00:13:14.626Z,1011.00
2024-03-05T00:14:14.635Z,1011.00
2024-03-05T00:15:14.619Z,1010.00
2024-03-05T00:16:14.679Z,1007.00
2024-03-05T00:17:14.680Z,1006.00
2024-03-05T00:18:14.707Z,1009.00
2024-03-05T00:19:14.758Z,1009.00
2024-03-05T00:20:14.773Z,1010.00
2024-03-05T00:21:14.820Z,1008.00
2024-03-05T00:22:14.869Z,1005.00
2024-03-05T00:23:14.849Z,1003.00
2024-03-05T00:24:14.838Z,1004.00
2024-03-05T00:25:14.921Z,1007.00
2024-03-05T00:26:14.912Z,1009.00
2024-03-05T00:27:14.951Z,1008.00
2024-03-05T00:28:14.992Z,1008.00
2024-03-05T00:29:15.021Z,1009.00
2024-03-05T00:30:15.496Z,1011.00
2024-03-05T00:31:15.097Z,1012.00
2024-03-05T00:32:15.115Z,1014.00
2024-03-05T00:33:15.219Z,1014.00
2024-03-05T00:34:15.212Z,1013.00
2024-03-05T00:35:15.240Z,1014.00
2024-03-05T00:36:15.236Z,1016.00
2024-03-05T00:37:15.315Z,1016.00
2024-03-05T00:38:22.186Z,1014.00
2024-03-05T00:39:16.298Z,1014.00
2024-03-05T00:40:15.342Z,1015.00
2024-03-05T00:41:15.292Z,1016.00
2024-03-05T00:42:15.326Z,1016.00
2024-03-05T00:43:15.339Z,1017.00
2024-03-05T00:44:15.337Z,1016.00
2024-03-05T00:45:15.301Z,1015.00
2024-03-05T00:46:15.335Z,1014.00
2024-03-05T00:47:15.327Z,1015.00
2024-03-05T00:48:15.319Z,1012.00
2024-03-05T00:49:15.425Z,1009.00
2024-03-05T00:50:15.418Z,1007.00
2024-03-05T00:51:15.437Z,1006.00
2024-03-05T00:52:15.507Z,1004.00
2024-03-05T00:53:15.559Z,1003.00
2024-03-05T00:54:15.671Z,1004.00
2024-03-05T00:55:15.716Z,1004.00
2024-03-05T00:56:15.776Z,1007.00
2024-03-05T00:57:15.846Z,1005.00
2024-03-05T00:58:15.873Z,1003.00
2024-03-05T00:59:15.898Z,1004.00
2024-03-05T01:00:15.972Z,1005.00
2024-03-05T01:01:16.053Z,1008.00
2024-03-05T01:02:16.110Z,1007.00
2024-03-05T01:03:16.084Z,1010.00
2024-03-05T01:04:16.108Z,1012.00
2024-03-05T01:05:16.180Z,1010.00
2024-03-05T01:06:16.201Z,1009.00
2024-03-05T01:07:16.450Z,1007.00
2024-03-05T01:08:16.218Z,1006.00
2024-03-05T01:09:16.251Z,1006.00
2024-03-05T01:10:16.310Z,1003.00
2024-03-05T01:11:16.362Z,1004.00
2024-03-05T01:12:16.329Z,1004.00
2024-03-05T01:13:16.391Z,1004.00
2024-03-05T01:14:16.351Z,1007.00
2024-03-05T01:15:16.395Z,1006.00
2024-03-05T01:16:16.464Z,1008.00
2024-03-05T01:17:16.462Z,1009.00
2024-03-05T01:18:16.459Z,1006.00
2024-03-05T01:19:16.515Z,1006.00
2024-03-05T01:20:16.503Z,1004.00
2024-03-05T01:21:16.512Z,1003.00
2024-03-05T01:22:16.677Z,1004.00
2024-03-05T01:23:16.542Z,1005.00
2024-03-05T01:24:16.531Z,1005.00
2024-03-05T01:25:16.584Z,1007.00
2024-03-05T01:26:16.601Z,1004.00
2024-03-05T01:27:16.603Z,1003.00
2024-03-05T01:28:16.667Z,1003.00
2024-03-05T01:29:16.616Z,1007.00
2024-03-05T01:30:16.616Z,1008.00
2024-03-05T01:31:16.792Z,1006.00
2024-03-05T01:32:16.685Z,1005.00
2024-03-05T01:33:16.756Z,1006.00
2024-03-05T01:34:16.734Z,1005.00
2024-03-05T01:35:16.739Z,1006.00
2024-03-05T01:36:16.796Z,1006.00
2024-03-05T01:37:16.776Z,1008.00
2024-03-05T01:38:16.775Z,1010.00
2024-03-05T01:39:16.775Z,1011.00
2024-03-05T01:40:16.830Z,1010.00
2024-03-05T01:41:16.793Z,1009.00
2024-03-05T01:42:16.808Z,1007.00
2024-03-05T01:43:16.916Z,1006.00
2024-03-05T01:44:16.901Z,1006.00
2024-03-05T01:45:16.914Z,1005.00
2024-03-05T01:46:17.002Z,1004.00
2024-03-05T01:47:17.013Z,1003.00
2024-03-05T01:48:17.017Z,1004.00
2024-03-05T01:49:17.061Z,1000.00
2024-03-05T01:50:17.031Z,998.00
2024-03-05T01:51:17.049Z,999.00
2024-03-05T01:52:17.130Z,997.00
2024-03-05T01:53:17.105Z,998.00
2024-03-05T01:54:17.198Z,999.00
2024-03-05T01:55:17.236Z,1002.00
2024-03-05T01:56:17.177Z,1001.00
2024-03-05T01:57:17.221Z,1000.00
2024-03-05T01:58:17.255Z,1001.00
2024-03-05T01:59:17.273Z,1000.00
2024-03-05T02:00:17.316Z,1006.00
2024-03-05T02:01:17.446Z,1005.00
2024-03-05T02:02:17.385Z,1005.00
2024-03-05T02:03:17.383Z,1005.00
2024-03-05T02:04:17.414Z,1008.00
2024-03-05T02:05:17.391Z,1009.00
2024-03-05T02:06:17.423Z,1006.00
2024-03-05T02:07:17.465Z,1002.00
2024-03-05T02:08:19.065Z,1001.00
2024-03-05T02:09:17.518Z,1002.00
2024-03-05T02:10:17.592Z,1002.00
2024-03-05T02:11:17.570Z,1001.00
2024-03-05T02:12:17.630Z,1000.00
2024-03-05T02:13:17.634Z,999.00
2024-03-05T02:14:17.669Z,1002.00
2024-03-05T02:15:17.667Z,1001.00
2024-03-05T02:16:17.710Z,1003.00
2024-03-05T02:17:18.379Z,1005.00
2024-03-05T02:18:17.733Z,1005.00
2024-03-05T02:19:17.761Z,1004.00
2024-03-05T02:20:17.778Z,1003.00
2024-03-05T02:21:17.810Z,1004.00
2024-03-05T02:22:17.872Z,1001.00
2024-03-05T02:23:17.826Z,998.00
2024-03-05T02:24:17.844Z,997.00
2024-03-05T02:25:19.369Z,996.00
2024-03-05T02:26:17.909Z,995.00
2024-03-05T02:27:23.810Z,996.00
2024-03-05T02:28:18.984Z,995.00
2024-03-05T02:29:17.948Z,994.00
2024-03-05T02:30:17.948Z,993.00
2024-03-05T02:31:17.959Z,994.00
2024-03-05T02:32:17.945Z,997.00
2024-03-05T02:33:17.946Z,1002.00
2024-03-05T02:34:17.999Z,1000.00
2024-03-05T02:35:17.970Z,1001.00
2024-03-05T02:36:17.956Z,1001.00
2024-03-05T02:37:18.026Z,999.00
2024-03-05T02:38:17.964Z,998.00
2024-03-05T02:39:17.944Z,995.00
2024-03-05T02:40:18.017Z,997.00
2024-03-05T02:41:18.011Z,996.00
2024-03-05T02:42:18.044Z,996.00
2024-03-05T02:43:18.085Z,994.00
2024-03-05T02:44:18.018Z,994.00
2024-03-05T02:45:18.027Z,996.00
2024-03-05T02:46:18.067Z,996.00
2024-03-05T02:47:18.077Z,998.00
2024-03-05T02:48:18.024Z,999.00
2024-03-05T02:49:18.080Z,1000.00
2024-03-05T02:50:18.050Z,1001.00
2024-03-05T02:51:18.126Z,1001.00
2024-03-05T02:52:18.164Z,1000.00
2024-03-05T02:53:18.081Z,1001.00
2024-03-05T02:54:18.064Z,1002.00
2024-03-05T02:55:18.103Z,1003.00
2024-03-05T02:56:18.070Z,1006.00
2024-03-05T02:57:18.090Z,1005.00
2024-03-05T02:58:18.138Z,1004.00
2024-03-05T02:59:18.058Z,1004.00
2024-03-05T03:00:18.068Z,1004.00
2024-03-05T03:01:18.114Z,1000.00
2024-03-05T03:02:18.096Z,999.00
2024-03-05T03:03:18.086Z,997.00
2024-03-05T03:04:18.142Z,997.00
2024-03-05T03:05:18.141Z,994.00
2024-03-05T03:06:18.156Z,993.00
2024-03-05T03:07:18.231Z,993.00
2024-03-05T03:08:18.169Z,992.00
2024-03-05T03:09:18.180Z,992.00
2024-03-05T03:10:18.194Z,991.00
2024-03-05T03:11:18.367Z,992.00
2024-03-05T03:12:18.224Z,994.00
2024-03-05T03:13:18.223Z,993.00
2024-03-05T03:14:18.224Z,992.00
2024-03-05T03:15:18.212Z,992.00
2024-03-05T03:16:18.240Z,989.00
2024-03-05T03:17:18.236Z,989.00
2024-03-05T03:18:18.317Z,992.00
2024-03-05T03:19:18.239Z,994.00
2024-03-05T03:20:18.259Z,995.00
2024-03-05T03:21:18.236Z,994.00
2024-03-05T03:22:18.307Z,995.00
2024-03-05T03:23:18.268Z,995.00
2024-03-05T03:24:18.265Z,994.00
2024-03-05T03:25:18.366Z,995.00
2024-03-05T03:26:18.307Z,993.00
2024-03-05T03:27:18.306Z,994.00
2024-03-05T03:28:18.401Z,993.00
2024-03-05T03:29:18.306Z,996.00
2024-03-05T03:30:18.330Z,998.00
2024-03-05T03:31:18.392Z,998.00
2024-03-05T03:32:18.337Z,998.00
2024-03-05T03:33:18.354Z,1000.00
2024-03-05T03:34:18.499Z,999.00
2024-03-05T03:35:18.379Z,996.00
2024-03-05T03:36:18.393Z,993.00
2024-03-05T03:37:18.425Z,992.00
2024-03-05T03:38:18.428Z,991.00
2024-03-05T03:39:18.434Z,991.00
2024-03-05T03:40:18.545Z,994.00
2024-03-05T03:41:18.439Z,996.00
2024-03-05T03:42:18.468Z,997.00
2024-03-05T03:43:18.517Z,996.00
2024-03-05T03:44:18.478Z,994.00
2024-03-05T03:45:18.554Z,995.00
2024-03-05T03:46:18.510Z,997.00
2024-03-05T03:47:18.509Z,994.00
2024-03-05T03:48:18.515Z,994.00
2024-03-05T03:49:18.577Z,993.00
2024-03-05T03:50:18.531Z,992.00
2024-03-05T03:51:18.541Z,993.00
2024-03-05T03:52:18.577Z,995.00
2024-03-05T03:53:18.562Z,994.00
2024-03-05T03:54:18.605Z,997.00
2024-03-05T03:55:18.631Z,998.00
2024-03-05T03:56:18.623Z,999.00
2024-03-05T03:57:18.630Z,997.00
2024-03-05T03:58:18.666Z,998.00
2024-03-05T03:59:18.637Z,999.00
2024-03-05T04:00:19.210Z,998.00
2024-03-05T04:01:18.762Z,996.00
2024-03-05T04:02:18.662Z,996.00
2024-03-05T04:03:18.698Z,999.00
2024-03-05T04:04:18.707Z,1001.00
2024-03-05T04:05:18.744Z,1002.00
2024-03-05T04:06:18.684Z,1001.00
2024-03-05T04:07:18.687Z,1001.00
2024-03-05T04:08:18.694Z,1001.00
2024-03-05T04:09:18.681Z,1002.00
2024-03-05T04:10:18.765Z,1002.00
2024-03-05T04:11:18.762Z,1001.00
2024-03-05T04:12:18.723Z,1001.00
2024-03-05T04:13:19.209Z,1001.00
2024-03-05T04:14:19.007Z,1000.00
2024-03-05T04:15:18.733Z,1002.00
2024-03-05T04:16:18.760Z,1000.00
2024-03-05T04:17:25.951Z,986.00
2024-03-05T04:18:25.920Z,983.00
2024-03-05T04:19:25.954Z,987.00
2024-03-05T04:20:25.948Z,987.00
2024-03-05T04:21:25.927Z,987.00
2024-03-05T04:22:25.937Z,990.00
2024-03-05T04:23:25.943Z,992.00
2024-03-05T04:24:25.929Z,992.00
2024-03-05T04:25:25.945Z,993.00
2024-03-05T04:26:25.946Z,989.00
2024-03-05T04:27:25.937Z,989.00
2024-03-05T04:28:25.957Z,983.00
2024-03-05T04:29:25.947Z,982.00
2024-03-05T04:30:25.923Z,984.00
2024-03-05T04:31:37.743Z,995.00
2024-03-05T04:32:34.216Z,993.00
2024-03-05T04:33:33.135Z,990.00
2024-03-05T04:34:33.244Z,991.00
2024-03-05T04:35:33.128Z,992.00
2024-03-05T04:36:33.098Z,990.00
2024-03-05T04:37:33.325Z,987.00
2024-03-05T04:38:33.117Z,985.00
2024-03-05T04:39:33.113Z,986.00
2024-03-05T04:40:33.170Z,982.00
2024-03-05T04:41:33.108Z,980.00
2024-03-05T04:42:33.257Z,982.00
2024-03-05T04:43:33.179Z,978.00
2024-03-05T04:44:33.241Z,977.00
2024-03-05T04:45:33.246Z,974.00
2024-03-05T04:46:33.358Z,975.00
2024-03-05T04:47:33.405Z,973.00
2024-03-05T04:48:33.423Z,974.00
2024-03-05T04:49:33.486Z,975.00
2024-03-05T04:50:33.533Z,972.00
2024-03-05T04:51:33.617Z,968.00
2024-03-05T04:52:33.695Z,971.00
2024-03-05T04:53:33.736Z,973.00
2024-03-05T04:54:33.773Z,974.00
2024-03-05T04:55:33.915Z,976.00
2024-03-05T04:56:33.892Z,977.00
2024-03-05T04:57:33.976Z,981.00
2024-03-05T04:58:34.084Z,981.00
2024-03-05T04:59:34.094Z,983.00
2024-03-05T05:00:34.123Z,982.00
2024-03-05T05:01:34.357Z,984.00
2024-03-05T05:02:34.258Z,981.00
2024-03-05T05:03:34.317Z,981.00
2024-03-05T05:04:34.406Z,981.00
2024-03-05T05:05:34.430Z,981.00
2024-03-05T05:06:34.523Z,981.00
2024-03-05T05:07:34.649Z,982.00
2024-03-05T05:08:34.647Z,980.00
2024-03-05T05:09:34.707Z,979.00
2024-03-05T05:10:34.820Z,978.00
2024-03-05T05:11:34.904Z,977.00
2024-03-05T05:12:34.915Z,975.00
2024-03-05T05:13:35.030Z,973.00
2024-03-05T05:14:38.705Z,972.00
2024-03-05T05:15:35.106Z,970.00
2024-03-05T05:16:35.063Z,968.00
2024-03-05T05:17:35.074Z,970.00
2024-03-05T05:18:35.088Z,970.00
2024-03-05T05:19:35.097Z,969.00
2024-03-05T05:20:35.077Z,972.00
2024-03-05T05:21:35.061Z,974.00
2024-03-05T05:22:35.189Z,976.00
2024-03-05T05:23:35.093Z,978.00
2024-03-05T05:24:35.087Z,977.00
2024-03-05T05:25:35.103Z,980.00
2024-03-05T05:26:35.085Z,979.00
2024-03-05T05:27:35.092Z,979.00
2024-03-05T05:28:35.160Z,980.00
2024-03-05T05:29:40.322Z,980.00
2024-03-05T05:30:36.107Z,981.00
2024-03-05T05:31:35.148Z,981.00
2024-03-05T05:32:35.110Z,980.00
2024-03-05T05:33:35.139Z,979.00
2024-03-05T05:34:35.152Z,978.00
2024-03-05T05:35:35.118Z,977.00
2024-03-05T05:36:35.145Z,977.00
2024-03-05T05:37:35.178Z,976.00
2024-03-05T05:38:35.258Z,976.00
2024-03-05T05:39:35.246Z,976.00
2024-03-05T05:40:35.339Z,978.00
2024-03-05T05:41:35.383Z,975.00
2024-03-05T05:42:35.466Z,973.00
2024-03-05T05:43:35.573Z,972.00
2024-03-05T05:44:35.593Z,970.00
2024-03-05T05:45:35.638Z,971.00
2024-03-05T05:46:35.782Z,971.00
2024-03-05T05:47:35.838Z,971.00
2024-03-05T05:48:35.902Z,973.00
2024-03-05T05:49:35.958Z,976.00
2024-03-05T05:50:35.972Z,972.00
2024-03-05T05:51:36.066Z,972.00
2024-03-05T05:52:36.133Z,970.00
2024-03-05T05:53:36.164Z,971.00
2024-03-05T05:54:36.239Z,970.00
2024-03-05T05:55:36.369Z,969.00
2024-03-05T05:56:36.384Z,971.00
2024-03-05T05:57:36.465Z,970.00
2024-03-05T05:58:36.637Z,973.00
2024-03-05T05:59:36.586Z,973.00
2024-03-05T06:00:37.640Z,975.00
2024-03-05T06:01:36.814Z,974.00
2024-03-05T06:02:36.876Z,972.00
2024-03-05T06:03:36.876Z,973.00
2024-03-05T06:04:36.965Z,974.00
2024-03-05T06:05:36.967Z,974.00
2024-03-05T06:06:37.042Z,973.00
2024-03-05T06:07:37.139Z,974.00
2024-03-05T06:08:37.190Z,974.00
2024-03-05T06:09:37.236Z,976.00
2024-03-05T06:10:37.376Z,978.00
2024-03-05T06:11:37.415Z,980.00
2024-03-05T06:12:37.442Z,980.00
2024-03-05T06:13:37.553Z,978.00
2024-03-05T06:14:37.582Z,976.00
2024-03-05T06:15:37.676Z,974.00
2024-03-05T06:16:37.762Z,975.00
2024-03-05T06:17:37.785Z,975.00
2024-03-05T06:18:37.821Z,974.00
2024-03-05T06:19:37.956Z,971.00
2024-03-05T06:20:37.960Z,971.00
2024-03-05T06:21:37.998Z,971.00
2024-03-05T06:22:38.083Z,974.00
2024-03-05T06:23:38.133Z,977.00
2024-03-05T06:24:38.210Z,968.00
2024-03-05T06:25:38.291Z,950.00
2024-03-05T06:26:38.373Z,939.00
2024-03-05T06:27:38.411Z,930.00
2024-03-05T06:28:38.485Z,919.00
2024-03-05T06:29:38.514Z,908.00
2024-03-05T06:30:38.595Z,894.00
2024-03-05T06:31:38.695Z,885.00
2024-03-05T06:32:38.698Z,877.00
2024-03-05T06:33:38.791Z,836.00
2024-03-05T06:34:38.841Z,849.00
2024-03-05T06:35:38.878Z,892.00
2024-03-05T06:36:38.948Z,896.00
2024-03-05T06:37:39.020Z,915.00
2024-03-05T06:38:39.065Z,985.00
2024-03-05T06:39:39.192Z,1029.00
2024-03-05T06:40:39.204Z,1049.00
2024-03-05T06:41:39.241Z,1067.00
2024-03-05T06:42:39.321Z,1118.00
2024-03-05T06:43:39.948Z,1161.00
2024-03-05T06:44:39.342Z,1179.00
2024-03-05T06:45:39.405Z,1194.00
2024-03-05T06:46:39.495Z,1216.00
2024-03-05T06:47:39.483Z,1255.00
2024-03-05T06:48:39.636Z,1266.00
2024-03-05T06:49:39.568Z,1315.00
2024-03-05T06:50:39.623Z,1330.00
2024-03-05T06:51:39.483Z,1387.00
2024-03-05T06:52:39.609Z,1415.00
2024-03-05T06:53:39.556Z,1507.00
2024-03-05T06:54:39.588Z,1528.00
2024-03-05T06:55:39.677Z,1541.00
2024-03-05T06:56:39.606Z,1561.00
2024-03-05T06:57:39.689Z,1579.00
2024-03-05T06:58:39.815Z,1666.00
2024-03-05T06:59:39.820Z,1676.00
2024-03-05T07:00:41.918Z,1687.00
2024-03-05T07:01:40.131Z,1728.00
2024-03-05T07:02:39.905Z,1764.00
2024-03-05T07:03:39.908Z,1826.00
2024-03-05T07:04:40.058Z,1844.00
2024-03-05T07:05:39.932Z,1891.00
2024-03-05T07:06:39.914Z,1915.00
2024-03-05T07:07:40.052Z,1947.00
2024-03-05T07:08:39.907Z,2017.00
2024-03-05T07:09:39.921Z,2016.00
2024-03-05T07:10:40.056Z,2110.00
2024-03-05T07:11:40.069Z,2104.00
2024-03-05T07:12:39.908Z,2113.00
2024-03-05T07:13:42.307Z,2124.00
2024-03-05T07:14:39.981Z,2192.00
2024-03-05T07:15:39.920Z,2192.00
2024-03-05T07:16:39.998Z,2210.00
2024-03-05T07:17:39.929Z,2226.00
2024-03-05T07:18:40.311Z,2292.00
2024-03-05T07:19:39.938Z,2337.00
2024-03-05T07:20:40.041Z,2358.00
2024-03-05T07:21:39.930Z,2378.00
2024-03-05T07:22:40.046Z,2409.00
2024-03-05T07:23:39.994Z,2436.00
2024-03-05T07:24:39.979Z,2442.00
2024-03-05T07:25:40.013Z,2461.00
2024-03-05T07:26:42.758Z,2510.00
2024-03-05T07:27:40.938Z,2539.00
2024-03-05T07:28:40.304Z,2616.00
2024-03-05T07:29:39.918Z,2636.00
2024-03-05T07:30:39.933Z,2690.00
2024-03-05T07:31:39.969Z,2678.00
2024-03-05T07:32:40.004Z,2703.00
2024-03-05T07:33:40.200Z,2732.00
2024-03-05T07:34:40.017Z,2772.00
2024-03-05T07:35:39.926Z,2815.00
2024-03-05T07:36:39.951Z,2839.00
2024-03-05T07:37:39.980Z,2736.00
2024-03-05T07:38:40.008Z,2706.00
2024-03-05T07:39:39.956Z,2546.00
2024-03-05T07:40:40.003Z,2492.00
2024-03-05T07:41:40.125Z,2190.00
2024-03-05T07:42:40.137Z,2372.00
2024-03-05T07:43:40.191Z,2528.00
2024-03-05T07:44:40.480Z,2471.00
2024-03-05T07:45:40.289Z,2406.00
2024-03-05T07:46:40.269Z,2239.00
2024-03-05T07:47:40.270Z,2204.00
2024-03-05T07:48:40.360Z,2015.00
2024-03-05T07:49:40.321Z,2103.00
2024-03-05T07:50:40.334Z,2091.00
2024-03-05T07:51:44.726Z,2056.00
2024-03-05T07:52:41.367Z,2040.00
2024-03-05T07:53:42.590Z,2030.00
2024-03-05T07:54:40.558Z,2020.00
2024-03-05T07:55:46.295Z,1840.00
2024-03-05T07:56:41.610Z,1874.00
2024-03-05T07:57:40.544Z,1915.00
2024-03-05T07:58:40.605Z,1915.00
2024-03-05T07:59:40.581Z,1905.00
2024-03-05T08:00:40.676Z,1903.00
2024-03-05T08:01:40.596Z,1891.00
2024-03-05T08:02:40.571Z,1886.00
2024-03-05T08:03:40.581Z,1881.00
2024-03-05T08:04:40.689Z,1877.00
2024-03-05T08:05:40.564Z,1876.00
2024-03-05T08:06:40.558Z,1872.00
2024-03-05T08:07:40.587Z,1851.00
2024-03-05T08:08:40.798Z,1782.00
2024-03-05T08:09:40.580Z,1798.00
2024-03-05T08:10:40.637Z,1796.00
2024-03-05T08:11:40.681Z,1799.00
2024-03-05T08:12:40.573Z,1799.00
2024-03-05T08:13:40.839Z,1799.00
2024-03-05T08:14:40.569Z,1557.00
2024-03-05T08:15:40.573Z,1698.00
2024-03-05T08:16:41.189Z,1456.00
2024-03-05T08:17:40.625Z,1627.00
2024-03-05T08:18:40.815Z,1627.00
2024-03-05T08:19:40.610Z,1626.00
2024-03-05T08:20:40.644Z,1634.00
2024-03-05T08:21:40.616Z,1638.00
2024-03-05T08:22:40.678Z,1644.00
2024-03-05T08:23:40.584Z,1648.00
2024-03-05T08:24:40.659Z,1499.00
2024-03-05T08:25:40.640Z,1415.00
2024-03-05T08:26:40.593Z,1494.00
2024-03-05T08:27:40.607Z,1467.00
2024-03-05T08:28:40.665Z,1417.00
2024-03-05T08:29:40.673Z,1413.00
2024-03-05T08:30:40.657Z,1271.00
2024-03-05T08:31:40.822Z,1169.00
2024-03-05T08:32:40.742Z,1182.00
2024-03-05T08:33:40.726Z,1092.00
2024-03-05T08:34:40.767Z,1104.00
2024-03-05T08:35:40.850Z,1118.00
2024-03-05T08:36:40.962Z,1113.00
2024-03-05T08:37:40.857Z,1160.00
2024-03-05T08:38:40.849Z,1268.00
2024-03-05T08:39:40.862Z,1260.00
2024-03-05T08:40:40.909Z,1208.00
2024-03-05T08:41:40.905Z,1218.00
2024-03-05T08:42:40.921Z,1240.00
2024-03-05T08:43:41.322Z,1026.00
2024-03-05T08:44:40.920Z,1204.00
2024-03-05T08:45:40.953Z,1205.00
2024-03-05T08:46:40.955Z,1197.00
2024-03-05T08:47:40.977Z,1201.00
2024-03-05T08:48:40.994Z,1208.00
2024-03-05T08:49:41.034Z,1208.00
2024-03-05T08:50:41.321Z,1242.00
2024-03-05T08:51:41.041Z,1257.00
2024-03-05T08:52:41.219Z,1267.00
2024-03-05T08:53:41.078Z,1276.00
2024-03-05T08:54:41.086Z,1300.00
2024-03-05T08:55:41.145Z,1301.00
2024-03-05T08:56:41.134Z,1302.00
2024-03-05T08:57:41.142Z,1309.00
2024-03-05T08:58:41.164Z,1318.00
2024-03-05T08:59:41.150Z,1324.00
2024-03-05T09:00:43.445Z,1319.00
2024-03-05T09:01:41.251Z,1334.00
2024-03-05T09:02:41.151Z,1344.00
2024-03-05T09:03:41.153Z,1349.00
2024-03-05T09:04:41.202Z,1355.00
2024-03-05T09:05:44.064Z,1352.00
2024-03-05T09:06:42.151Z,1275.00
2024-03-05T09:07:41.206Z,1308.00
2024-03-05T09:08:41.166Z,1320.00
2024-03-05T09:09:41.165Z,1348.00
2024-03-05T09:10:41.468Z,1366.00
2024-03-05T09:11:41.277Z,1369.00
2024-03-05T09:12:41.182Z,1356.00
2024-03-05T09:13:41.245Z,1341.00
2024-03-05T09:14:41.165Z,1372.00
2024-03-05T09:15:43.824Z,1398.00
2024-03-05T09:16:41.259Z,1404.00
2024-03-05T09:17:41.214Z,1394.00
2024-03-05T09:18:41.337Z,1389.00
2024-03-05T09:19:41.179Z,1400.00
2024-03-05T09:20:41.222Z,1406.00
2024-03-05T09:21:41.197Z,1433.00
2024-03-05T09:22:41.256Z,1439.00
2024-03-05T09:23:41.230Z,1214.00
2024-03-05T09:24:41.190Z,1311.00
2024-03-05T09:25:41.200Z,1156.00
2024-03-05T09:26:41.206Z,1084.00
2024-03-05T09:27:41.194Z,1022.00
2024-03-05T09:28:41.386Z,1007.00
2024-03-05T09:29:41.280Z,1000.00
2024-03-05T09:30:41.218Z,995.00
2024-03-05T09:31:41.254Z,985.00
2024-03-05T09:32:41.857Z,980.00
2024-03-05T09:33:41.218Z,971.00
2024-03-05T09:34:41.277Z,960.00
2024-03-05T09:35:41.359Z,949.00
2024-03-05T09:36:42.863Z,935.00
2024-03-05T09:37:41.270Z,931.00
2024-03-05T09:38:41.846Z,920.00
2024-03-05T09:39:41.216Z,913.00
2024-03-05T09:40:41.234Z,911.00
2024-03-05T09:41:41.244Z,938.00
2024-03-05T09:42:41.231Z,1053.00
2024-03-05T09:43:41.263Z,1085.00
2024-03-05T09:44:41.224Z,1110.00
2024-03-05T09:45:41.249Z,1156.00
2024-03-05T09:46:41.252Z,1145.00
2024-03-05T09:47:41.277Z,1167.00
2024-03-05T09:48:41.247Z,1217.00
2024-03-05T09:49:41.253Z,1231.00
2024-03-05T09:50:41.236Z,1256.00
2024-03-05T09:51:41.247Z,1258.00
2024-03-05T09:52:41.330Z,1266.00
2024-03-05T09:53:41.354Z,1304.00
2024-03-05T09:54:41.236Z,1344.00
2024-03-05T09:55:41.272Z,1344.00
2024-03-05T09:56:41.238Z,1345.00
2024-03-05T09:57:41.251Z,1349.00
2024-03-05T09:58:41.395Z,1349.00
2024-03-05T09:59:41.291Z,1351.00
2024-03-05T10:00:41.260Z,1322.00
2024-03-05T10:01:41.375Z,1352.00
2024-03-05T10:02:41.390Z,1377.00
2024-03-05T10:03:41.322Z,1397.00
2024-03-05T10:04:41.349Z,1414.00
2024-03-05T10:05:41.316Z,1420.00
2024-03-05T10:06:41.402Z,1425.00
2024-03-05T10:07:41.456Z,1444.00
2024-03-05T10:08:41.464Z,1458.00
2024-03-05T10:09:41.470Z,1301.00
2024-03-05T10:10:41.620Z,1419.00
2024-03-05T10:11:41.597Z,1405.00
2024-03-05T10:12:41.493Z,1400.00
2024-03-05T10:13:41.881Z,1392.00
2024-03-05T10:14:42.399Z,1406.00
2024-03-05T10:15:41.475Z,1418.00
2024-03-05T10:16:41.571Z,1433.00
2024-03-05T10:17:41.565Z,1453.00
2024-03-05T10:18:42.417Z,1476.00
2024-03-05T10:19:41.627Z,1494.00
2024-03-05T10:20:41.517Z,1498.00
2024-03-05T10:21:41.525Z,1496.00
2024-03-05T10:22:41.592Z,1499.00
2024-03-05T10:23:41.571Z,1501.00
2024-03-05T10:24:41.678Z,1505.00
2024-03-05T10:25:41.907Z,1508.00
2024-03-05T10:26:41.629Z,1508.00
2024-03-05T10:27:41.733Z,1437.00
2024-03-05T10:28:41.867Z,1303.00
2024-03-05T10:29:41.703Z,1329.00
2024-03-05T10:30:41.712Z,1115.00
2024-03-05T10:31:41.784Z,1282.00
2024-03-05T10:32:41.720Z,1413.00
2024-03-05T10:33:41.762Z,1278.00
2024-03-05T10:34:41.813Z,1296.00
2024-03-05T10:35:42.055Z,1154.00
2024-03-05T10:36:41.836Z,1045.00
2024-03-05T10:37:41.919Z,1036.00
2024-03-05T10:39:41.871Z,1146.00
2024-03-05T10:40:41.933Z,1164.00
2024-03-05T10:41:47.445Z,1091.00
2024-03-05T10:42:42.895Z,1210.00
2024-03-05T10:43:42.000Z,1064.00
2024-03-05T10:44:41.905Z,1021.00
2024-03-05T10:45:42.641Z,1009.00
2024-03-05T10:46:41.928Z,1094.00
2024-03-05T10:47:41.917Z,1076.00
2024-03-05T10:48:42.371Z,1034.00
2024-03-05T10:49:42.018Z,1049.00
2024-03-05T10:50:42.390Z,1102.00
2024-03-05T10:51:41.875Z,1096.00
2024-03-05T10:52:41.929Z,1105.00
2024-03-05T10:53:42.362Z,1116.00
2024-03-05T10:54:41.872Z,1125.00
2024-03-05T10:55:42.438Z,1124.00
2024-03-05T10:56:44.779Z,1041.00
2024-03-05T10:57:41.903Z,1085.00
2024-03-05T10:58:41.950Z,1081.00
2024-03-05T10:59:41.897Z,1005.00
2024-03-05T11:00:41.988Z,970.00
2024-03-05T11:01:42.586Z,976.00
2024-03-05T11:02:41.914Z,977.00
2024-03-05T11:03:41.966Z,1025.00
2024-03-05T11:04:41.999Z,1052.00
2024-03-05T11:05:41.892Z,1053.00
2024-03-05T11:06:41.897Z,1059.00
2024-03-05T11:07:42.011Z,1061.00
2024-03-05T11:08:41.913Z,1039.00
2024-03-05T11:09:41.909Z,1088.00
2024-03-05T11:10:41.967Z,1103.00
2024-03-05T11:11:41.933Z,1086.00
2024-03-05T11:12:41.903Z,1083.00
2024-03-05T11:13:42.131Z,1076.00
2024-03-05T11:14:41.917Z,1115.00
2024-03-05T11:15:42.000Z,1134.00
2024-03-05T11:16:41.946Z,1150.00
2024-03-05T11:17:41.956Z,1163.00
2024-03-05T11:18:41.927Z,1185.00
2024-03-05T11:19:41.961Z,1192.00
2024-03-05T11:20:41.966Z,1194.00
2024-03-05T11:21:41.954Z,1203.00
2024-03-05T11:22:41.958Z,1209.00
2024-03-05T11:23:41.994Z,1218.00
2024-03-05T11:24:41.947Z,1229.00
2024-03-05T11:25:41.950Z,1242.00
2024-03-05T11:26:41.929Z,1252.00
2024-03-05T11:27:41.940Z,1236.00
2024-03-05T11:28:41.989Z,1135.00
2024-03-05T11:29:41.964Z,1218.00
2024-03-05T11:30:42.027Z,1241.00
2024-03-05T11:31:42.121Z,1238.00
2024-03-05T11:32:42.202Z,1232.00
2024-03-05T11:33:42.259Z,1228.00
2024-03-05T11:34:42.421Z,1225.00
2024-03-05T11:35:42.355Z,1223.00
2024-03-05T11:36:42.440Z,1221.00
2024-03-05T11:37:42.473Z,1221.00
2024-03-05T11:38:42.555Z,1222.00
2024-03-05T11:39:42.620Z,1220.00
2024-03-05T11:40:42.716Z,1216.00
2024-03-05T11:41:42.875Z,1214.00
2024-03-05T11:42:42.807Z,1214.00
2024-03-05T11:43:42.950Z,1210.00
2024-03-05T11:44:43.034Z,1212.00
2024-03-05T11:45:43.086Z,1210.00
2024-03-05T11:46:43.151Z,1206.00
2024-03-05T11:47:43.208Z,1205.00
2024-03-05T11:48:43.198Z,1209.00
2024-03-05T11:49:43.340Z,1210.00
2024-03-05T11:50:43.356Z,1208.00
2024-03-05T11:51:43.407Z,1207.00
2024-03-05T11:52:43.538Z,1208.00
2024-03-05T11:53:43.553Z,1204.00
2024-03-05T11:54:43.611Z,1202.00
2024-03-05T11:55:43.823Z,1203.00
2024-03-05T11:56:43.752Z,1204.00
2024-03-05T11:57:43.805Z,1204.00
2024-03-05T11:58:43.901Z,1204.00
2024-03-05T11:59:43.982Z,1202.00
2024-03-05T12:00:43.970Z,1203.00
2024-03-05T12:01:44.400Z,1200.00
2024-03-05T12:02:44.212Z,1198.00
2024-03-05T12:03:44.111Z,1197.00
2024-03-05T12:04:44.347Z,1198.00
2024-03-05T12:05:44.184Z,1199.00
2024-03-05T12:06:44.254Z,1198.00
2024-03-05T12:07:44.302Z,1198.00
2024-03-05T12:08:44.331Z,1197.00
2024-03-05T12:09:44.429Z,1198.00
2024-03-05T12:10:44.504Z,1198.00
2024-03-05T12:11:44.450Z,1198.00
2024-03-05T12:12:44.518Z,1199.00
2024-03-05T12:13:44.539Z,1200.00
2024-03-05T12:14:44.522Z,1204.00